createdAt,value
2022-12-20T00:01:19.339Z,23.30
2022-12-20T00:11:25.672Z,22.90
2022-12-20T00:21:32.252Z,21.90
2022-12-20T00:31:38.023Z,23.00
2022-12-20T00:41:43.744Z,21.30
2022-12-20T00:51:49.402Z,20.10
2022-12-20T01:01:55.350Z,22.70
2022-12-20T01:12:01.575Z,20.50
2022-12-20T01:22:07.399Z,20.20
2022-12-20T01:32:13.098Z,23.90
2022-12-20T01:42:19.063Z,22.90
2022-12-20T01:52:32.390Z,20.00
2022-12-20T02:02:39.405Z,24.10
2022-12-20T02:12:47.210Z,19.90
2022-12-20T02:23:14.633Z,22.90
2022-12-20T02:33:21.367Z,21.10
2022-12-20T02:53:49.288Z,19.00
2022-12-20T03:03:56.291Z,17.60
2022-12-20T03:14:01.944Z,21.90
2022-12-20T03:24:08.386Z,22.30
2022-12-20T03:34:14.061Z,22.20
2022-12-20T03:44:19.747Z,23.80
2022-12-20T03:54:25.496Z,21.80
2022-12-20T04:04:31.158Z,23.40
2022-12-20T04:14:37.535Z,22.40
2022-12-20T04:24:43.431Z,21.00
2022-12-20T04:34:49.192Z,24.80
2022-12-20T04:44:55.032Z,20.10
2022-12-20T04:55:01.136Z,22.00
2022-12-20T05:05:08.203Z,21.20
2022-12-20T05:15:14.700Z,21.10
2022-12-20T05:25:38.605Z,21.00
2022-12-20T05:35:44.425Z,20.80
2022-12-20T05:45:52.317Z,20.90
2022-12-20T05:55:58.129Z,24.60
2022-12-20T06:06:08.700Z,23.70
2022-12-20T06:16:20.677Z,24.70
2022-12-20T06:26:26.942Z,24.40
2022-12-20T06:36:32.784Z,24.70
2022-12-20T06:46:38.816Z,23.90
2022-12-20T06:56:44.733Z,25.00
2022-12-20T07:06:50.805Z,26.10
2022-12-20T07:16:58.686Z,30.00
2022-12-20T07:27:04.640Z,24.50
2022-12-20T07:37:10.517Z,24.50
2022-12-20T07:47:16.386Z,24.60
2022-12-20T07:57:28.745Z,24.60
2022-12-20T08:07:35.806Z,26.40
2022-12-20T08:17:42.997Z,22.40
2022-12-20T08:27:49.625Z,27.80
2022-12-20T08:37:55.666Z,21.90
2022-12-20T08:48:02.069Z,26.10
2022-12-20T08:58:08.203Z,28.10
2022-12-20T09:08:14.219Z,25.90
2022-12-20T09:18:20.068Z,25.70
2022-12-20T09:28:26.103Z,29.10
2022-12-20T09:38:33.615Z,27.70
2022-12-20T09:48:41.643Z,25.40
2022-12-20T09:59:03.333Z,28.50
2022-12-20T10:09:22.985Z,26.50
2022-12-20T10:19:47.964Z,27.60
2022-12-20T10:29:54.865Z,26.90
2022-12-20T10:40:06.958Z,28.20
2022-12-20T10:50:18.274Z,26.00
2022-12-20T11:00:33.341Z,29.40
2022-12-20T11:10:39.615Z,27.40
2022-12-20T11:20:53.121Z,29.00
2022-12-20T11:31:09.600Z,27.30
2022-12-20T11:41:26.674Z,26.90
2022-12-20T11:51:44.768Z,24.60
2022-12-20T12:01:58.205Z,29.90
2022-12-20T12:12:10.884Z,25.60
2022-12-20T12:22:24.454Z,27.20
2022-12-20T12:32:38.004Z,32.40
2022-12-20T12:43:34.846Z,28.30
2022-12-20T12:53:45.929Z,30.20
2022-12-20T13:04:22.544Z,27.30
2022-12-20T13:14:53.801Z,29.50
2022-12-20T13:25:02.847Z,27.30
2022-12-20T13:35:31.528Z,25.30
2022-12-20T13:45:40.088Z,32.30
2022-12-20T13:55:46.231Z,26.50
2022-12-20T14:05:57.673Z,30.30
2022-12-20T14:16:12.259Z,30.20
2022-12-20T14:26:23.441Z,29.50
2022-12-20T14:36:30.685Z,28.70
2022-12-20T14:46:40.244Z,32.20
2022-12-20T14:56:51.971Z,33.20
2022-12-20T15:06:58.474Z,32.60
2022-12-20T15:17:10.949Z,30.40
2022-12-20T15:27:17.521Z,34.00
2022-12-20T15:37:23.780Z,37.80
2022-12-20T15:47:30.020Z,35.00
2022-12-20T15:57:36.225Z,33.90
2022-12-20T16:07:42.451Z,37.60
2022-12-20T16:17:48.450Z,43.20
2022-12-20T16:27:54.929Z,43.60
2022-12-20T16:38:01.827Z,37.40
2022-12-20T16:48:08.575Z,42.80
2022-12-20T16:58:14.571Z,34.50
2022-12-20T17:18:45.569Z,41.50
2022-12-20T17:28:52.116Z,41.10
2022-12-20T17:38:58.248Z,40.20
2022-12-20T17:49:04.611Z,41.40
2022-12-20T17:59:12.742Z,39.60
2022-12-20T18:09:20.989Z,36.20
2022-12-20T18:19:27.131Z,38.30
2022-12-20T18:29:33.491Z,40.00
2022-12-20T18:39:39.694Z,29.50
2022-12-20T18:49:45.778Z,37.60
2022-12-20T18:59:51.949Z,31.30
2022-12-20T19:09:57.987Z,35.40
2022-12-20T19:20:05.319Z,35.20
2022-12-20T19:30:12.874Z,36.30
2022-12-20T19:40:19.070Z,28.80
2022-12-20T19:50:25.053Z,29.70
2022-12-20T20:00:31.155Z,33.20
2022-12-20T20:10:37.310Z,31.00
2022-12-20T20:20:44.272Z,31.90
2022-12-20T20:30:51.240Z,33.70
2022-12-20T20:51:01.819Z,29.70
2022-12-20T21:01:09.738Z,33.60
2022-12-20T21:11:15.893Z,28.90
2022-12-20T21:21:22.645Z,28.90
2022-12-20T21:31:28.944Z,29.30
2022-12-20T21:41:35.008Z,24.60
2022-12-20T21:51:40.983Z,26.80
2022-12-20T22:01:47.312Z,24.70
2022-12-20T22:11:53.464Z,28.10
2022-12-20T22:21:59.734Z,29.80
2022-12-20T22:32:05.915Z,28.70
2022-12-20T22:42:12.008Z,30.10
2022-12-20T22:52:18.184Z,28.70
2022-12-20T23:02:24.413Z,28.10
2022-12-20T23:12:48.200Z,30.00
2022-12-20T23:22:54.161Z,26.90
2022-12-20T23:33:00.248Z,26.80
2022-12-20T23:43:06.585Z,25.10
2022-12-20T23:53:12.463Z,28.10
